createdAt,value
2023-04-21T00:01:08.943Z,23.23
2023-04-21T00:03:39.167Z,22.67
2023-04-21T00:06:07.459Z,22.23
2023-04-21T00:08:40.743Z,20.98
2023-04-21T00:11:10.265Z,22.20
2023-04-21T00:13:39.362Z,19.85
2023-04-21T00:16:08.265Z,24.90
2023-04-21T00:18:36.384Z,20.83
2023-04-21T00:21:04.653Z,24.48
2023-04-21T00:23:32.489Z,22.23
2023-04-21T00:26:02.748Z,21.85
2023-04-21T00:28:32.445Z,19.38
2023-04-21T00:31:00.370Z,21.77
2023-04-21T00:33:28.292Z,21.83
2023-04-21T00:35:59.246Z,23.77
2023-04-21T00:38:27.310Z,23.33
2023-04-21T00:40:55.691Z,18.05
2023-04-21T00:43:25.738Z,20.97
2023-04-21T00:45:55.321Z,24.10
2023-04-21T00:48:24.594Z,20.90
2023-04-21T00:50:52.846Z,22.23
2023-04-21T00:53:22.137Z,21.45
2023-04-21T00:55:51.820Z,21.23
2023-04-21T00:58:19.676Z,20.48
2023-04-21T01:00:47.696Z,19.95
2023-04-21T01:03:17.832Z,20.27
2023-04-21T01:05:46.971Z,22.35
2023-04-21T01:08:15.721Z,22.70
2023-04-21T01:10:43.625Z,19.30
2023-04-21T01:13:11.515Z,17.48
2023-04-21T01:15:39.590Z,17.98
2023-04-21T01:18:07.648Z,20.65
2023-04-21T01:20:37.433Z,19.50
2023-04-21T01:23:07.889Z,22.48
2023-04-21T01:25:36.088Z,19.70
2023-04-21T01:28:04.247Z,19.48
2023-04-21T01:30:32.262Z,19.52
2023-04-21T01:33:00.821Z,15.67
2023-04-21T01:35:29.339Z,18.52
2023-04-21T01:37:57.221Z,18.20
2023-04-21T01:40:26.680Z,19.10
2023-04-21T01:42:54.724Z,17.33
2023-04-21T01:45:22.501Z,16.17
2023-04-21T01:47:50.888Z,20.20
2023-04-21T01:50:18.894Z,20.00
2023-04-21T01:52:46.757Z,19.02
2023-04-21T01:55:15.206Z,21.65
2023-04-21T01:57:44.837Z,20.57
2023-04-21T02:00:14.636Z,20.83
2023-04-21T02:02:42.785Z,25.92
2023-04-21T02:05:11.001Z,24.70
2023-04-21T02:07:39.058Z,22.98
2023-04-21T02:10:07.319Z,21.63
2023-04-21T02:12:35.215Z,20.77
2023-04-21T02:15:05.514Z,21.00
2023-04-21T02:17:33.698Z,20.30
2023-04-21T02:20:03.893Z,19.23
2023-04-21T02:22:32.863Z,21.50
2023-04-21T02:25:01.058Z,20.73
2023-04-21T02:27:29.039Z,21.88
2023-04-21T02:29:57.052Z,18.85
2023-04-21T02:32:26.558Z,17.83
2023-04-21T02:34:54.779Z,19.50
2023-04-21T02:37:22.755Z,20.58
2023-04-21T02:39:51.115Z,24.00
2023-04-21T02:42:19.038Z,22.45
2023-04-21T02:44:47.134Z,20.63
2023-04-21T02:47:17.198Z,21.87
2023-04-21T02:49:46.489Z,22.35
2023-04-21T02:52:14.355Z,19.73
2023-04-21T02:54:42.331Z,22.15
2023-04-21T02:57:10.372Z,21.92
2023-04-21T02:59:38.026Z,20.00
2023-04-21T03:02:06.056Z,17.83
2023-04-21T03:04:34.519Z,19.13
2023-04-21T03:07:04.053Z,20.88
2023-04-21T03:09:31.913Z,17.30
2023-04-21T03:11:59.936Z,20.17
2023-04-21T03:14:27.774Z,22.73
2023-04-21T03:16:55.471Z,22.50
2023-04-21T03:19:23.601Z,20.13
2023-04-21T03:21:52.037Z,19.80
2023-04-21T03:24:21.933Z,19.40
2023-04-21T03:26:50.283Z,18.77
2023-04-21T03:29:19.132Z,18.75
2023-04-21T03:31:47.084Z,19.10
2023-04-21T03:34:15.055Z,17.75
2023-04-21T03:36:43.606Z,16.63
2023-04-21T03:39:20.441Z,20.48
2023-04-21T03:41:50.163Z,19.25
2023-04-21T03:44:18.029Z,18.70
2023-04-21T03:46:46.583Z,20.98
2023-04-21T03:49:14.633Z,23.43
2023-04-21T03:51:42.305Z,23.20
2023-04-21T03:54:09.902Z,20.92
2023-04-21T03:56:38.144Z,23.05
2023-04-21T03:59:07.707Z,24.85
2023-04-21T04:01:35.828Z,21.97
2023-04-21T04:04:04.315Z,21.10
2023-04-21T04:06:33.229Z,21.40
2023-04-21T04:09:02.724Z,20.60
2023-04-21T04:11:31.137Z,22.58
2023-04-21T04:13:59.208Z,21.37
2023-04-21T04:16:29.449Z,22.75
2023-04-21T04:18:57.686Z,21.45
2023-04-21T04:21:25.712Z,20.35
2023-04-21T04:23:53.785Z,21.60
2023-04-21T04:26:22.785Z,22.20
2023-04-21T04:28:50.826Z,24.77
2023-04-21T04:31:19.432Z,26.40
2023-04-21T04:33:48.972Z,39.80
2023-04-21T04:36:16.779Z,32.25
2023-04-21T04:38:46.152Z,35.27
2023-04-21T04:41:15.816Z,31.25
2023-04-21T04:43:44.386Z,28.58
2023-04-21T04:46:14.430Z,26.38
2023-04-21T04:48:42.310Z,27.45
2023-04-21T04:51:13.818Z,24.87
2023-04-21T04:53:42.048Z,23.63
2023-04-21T04:56:09.918Z,27.55
2023-04-21T04:58:39.198Z,30.60
2023-04-21T05:01:14.285Z,30.60
2023-04-21T05:03:42.840Z,27.70
2023-04-21T05:06:17.879Z,32.38
2023-04-21T05:08:46.006Z,25.80
2023-04-21T05:11:13.885Z,23.70
2023-04-21T05:13:41.886Z,25.33
2023-04-21T05:16:11.612Z,24.07
2023-04-21T05:18:39.564Z,24.70
2023-04-21T05:21:07.431Z,23.40
2023-04-21T05:23:36.860Z,23.42
2023-04-21T05:26:05.055Z,23.73
2023-04-21T05:28:33.348Z,21.93
2023-04-21T05:31:01.406Z,23.83
2023-04-21T05:33:32.030Z,25.77
2023-04-21T05:35:59.755Z,31.73
2023-04-21T05:38:28.378Z,27.88
2023-04-21T05:40:57.701Z,38.37
2023-04-21T05:43:25.757Z,38.53
2023-04-21T05:45:53.583Z,32.92
2023-04-21T05:48:21.704Z,26.80
2023-04-21T05:50:49.398Z,32.30
2023-04-21T05:53:18.130Z,33.20
2023-04-21T05:55:46.205Z,30.27
2023-04-21T05:58:15.408Z,32.83
2023-04-21T06:00:43.288Z,45.80
2023-04-21T06:03:11.084Z,44.20
2023-04-21T06:05:39.388Z,42.37
2023-04-21T06:08:08.031Z,43.03
2023-04-21T06:10:36.466Z,39.55
2023-04-21T06:13:04.464Z,26.85
2023-04-21T06:15:33.636Z,27.67
2023-04-21T06:18:01.602Z,20.67
2023-04-21T06:20:29.333Z,21.35
2023-04-21T06:22:57.276Z,19.13
2023-04-21T06:25:25.409Z,16.60
2023-04-21T06:27:53.209Z,18.75
2023-04-21T06:30:21.731Z,18.90
2023-04-21T06:32:51.403Z,17.75
2023-04-21T06:35:20.621Z,16.40
2023-04-21T06:37:48.504Z,19.90
2023-04-21T06:40:17.220Z,18.95
2023-04-21T06:42:45.057Z,19.90
2023-04-21T06:45:13.190Z,19.15
2023-04-21T06:47:40.849Z,20.33
2023-04-21T06:50:11.807Z,21.13
2023-04-21T06:52:39.392Z,21.58
2023-04-21T06:55:10.774Z,26.03
2023-04-21T06:57:39.130Z,26.38
2023-04-21T07:00:08.530Z,21.90
2023-04-21T07:02:36.445Z,17.70
2023-04-21T07:05:04.536Z,21.10
2023-04-21T07:07:33.759Z,15.90
2023-04-21T07:10:04.354Z,16.45
2023-04-21T07:12:32.554Z,16.15
2023-04-21T07:15:00.499Z,19.10
2023-04-21T07:17:28.533Z,14.45
2023-04-21T07:19:56.523Z,13.30
2023-04-21T07:22:25.125Z,15.25
2023-04-21T07:24:54.776Z,15.32
2023-04-21T07:27:22.648Z,15.70
2023-04-21T07:29:50.775Z,13.18
2023-04-21T07:32:18.846Z,17.90
2023-04-21T07:34:48.416Z,12.93
2023-04-21T07:37:16.765Z,13.77
2023-04-21T07:39:44.506Z,16.67
2023-04-21T07:42:13.567Z,15.40
2023-04-21T07:44:41.560Z,15.13
2023-04-21T07:47:09.474Z,12.15
2023-04-21T07:49:37.968Z,16.27
2023-04-21T07:52:06.246Z,15.25
2023-04-21T07:54:34.155Z,14.70
2023-04-21T07:57:02.545Z,12.87
2023-04-21T07:59:32.154Z,14.38
2023-04-21T08:02:00.223Z,11.07
2023-04-21T08:04:28.360Z,10.68
2023-04-21T08:06:56.531Z,9.50
2023-04-21T08:09:24.599Z,13.43
2023-04-21T08:11:52.433Z,8.93
2023-04-21T08:14:20.780Z,8.43
2023-04-21T08:16:50.947Z,8.45
2023-04-21T08:19:20.004Z,8.23
2023-04-21T08:21:48.592Z,7.90
2023-04-21T08:24:16.635Z,10.20
2023-04-21T08:26:45.195Z,7.97
2023-04-21T08:29:14.093Z,7.32
2023-04-21T08:31:42.593Z,8.55
2023-04-21T08:34:12.284Z,7.40
2023-04-21T08:36:41.558Z,8.70
2023-04-21T08:39:09.576Z,7.07
2023-04-21T08:41:41.877Z,7.53
2023-04-21T08:44:11.464Z,8.02
2023-04-21T08:46:40.998Z,6.50
2023-04-21T08:49:13.605Z,7.70
2023-04-21T08:51:41.816Z,8.55
2023-04-21T08:54:09.994Z,8.27
2023-04-21T08:56:38.036Z,9.25
2023-04-21T08:59:05.951Z,11.37
2023-04-21T09:01:33.585Z,8.73
2023-04-21T09:04:20.653Z,8.80
2023-04-21T09:06:48.413Z,8.88
2023-04-21T09:09:16.583Z,7.85
2023-04-21T09:11:44.446Z,6.93
2023-04-21T09:14:12.772Z,9.05
2023-04-21T09:16:40.517Z,9.15
2023-04-21T09:19:16.028Z,8.75
2023-04-21T09:21:46.613Z,7.90
2023-04-21T09:24:14.247Z,7.77
2023-04-21T09:26:44.230Z,10.35
2023-04-21T09:29:12.895Z,7.72
2023-04-21T09:31:40.761Z,9.00
2023-04-21T09:34:20.765Z,7.32
2023-04-21T09:36:50.603Z,6.63
2023-04-21T09:41:49.953Z,8.93
2023-04-21T09:44:18.628Z,7.72
2023-04-21T09:46:52.018Z,7.95
2023-04-21T09:49:19.934Z,7.20
2023-04-21T09:52:17.088Z,7.95
2023-04-21T09:54:43.470Z,8.65
2023-04-21T09:57:14.883Z,6.97
2023-04-21T09:59:46.954Z,7.03
2023-04-21T10:02:16.606Z,6.60
2023-04-21T10:04:45.723Z,6.03
2023-04-21T10:07:15.768Z,6.35
2023-04-21T10:09:47.828Z,5.72
2023-04-21T10:12:17.007Z,6.68
2023-04-21T10:14:44.821Z,6.23
2023-04-21T10:17:12.793Z,5.72
2023-04-21T10:19:51.261Z,5.07
2023-04-21T10:22:30.145Z,6.63
2023-04-21T10:24:59.698Z,5.93
2023-04-21T10:27:36.008Z,5.87
2023-04-21T10:30:20.114Z,4.40
2023-04-21T10:32:48.183Z,4.95
2023-04-21T10:35:18.166Z,9.25
2023-04-21T10:37:50.590Z,5.45
2023-04-21T10:40:43.950Z,4.80
2023-04-21T10:43:42.289Z,7.60
2023-04-21T10:46:35.211Z,4.40
2023-04-21T10:49:08.233Z,5.30
2023-04-21T10:52:05.706Z,5.00
2023-04-21T10:54:43.759Z,6.33
2023-04-21T10:57:13.235Z,5.35
2023-04-21T10:59:42.004Z,5.80
2023-04-21T11:02:12.538Z,4.85
2023-04-21T11:04:45.093Z,5.43
2023-04-21T11:07:16.700Z,5.30
2023-04-21T11:09:51.116Z,7.70
2023-04-21T11:12:19.988Z,5.00
2023-04-21T11:14:48.971Z,5.43
2023-04-21T11:17:18.177Z,4.63
2023-04-21T11:19:47.930Z,6.43
2023-04-21T11:22:18.294Z,5.68
2023-04-21T11:24:48.562Z,6.35
2023-04-21T11:27:17.902Z,4.15
2023-04-21T11:29:46.741Z,5.22
2023-04-21T11:32:16.461Z,4.93
2023-04-21T11:34:45.839Z,5.30
2023-04-21T11:37:18.247Z,5.30
2023-04-21T11:39:47.289Z,5.95
2023-04-21T11:42:22.328Z,5.53
2023-04-21T11:44:49.953Z,5.40
2023-04-21T11:47:19.494Z,5.35
2023-04-21T11:49:49.685Z,5.93
2023-04-21T11:52:25.194Z,4.93
2023-04-21T11:54:59.516Z,5.57
2023-04-21T11:57:28.693Z,4.57
2023-04-21T12:00:00.181Z,6.57
2023-04-21T12:02:30.931Z,5.18
2023-04-21T12:05:01.541Z,5.05
2023-04-21T12:07:32.112Z,5.97
2023-04-21T12:10:03.042Z,3.87
2023-04-21T12:12:31.095Z,5.18
2023-04-21T12:14:59.204Z,3.30
2023-04-21T12:17:27.278Z,5.80
2023-04-21T12:19:55.221Z,4.82
2023-04-21T12:22:23.793Z,6.17
2023-04-21T12:24:51.417Z,4.53
2023-04-21T12:27:21.787Z,4.80
2023-04-21T12:29:49.611Z,6.55
2023-04-21T12:32:17.631Z,5.22
2023-04-21T12:34:46.053Z,6.40
2023-04-21T12:37:13.985Z,5.45
2023-04-21T12:39:42.041Z,5.93
2023-04-21T12:42:09.924Z,5.20
2023-04-21T12:44:40.145Z,6.03
2023-04-21T12:47:08.377Z,4.83
2023-04-21T12:49:36.625Z,4.78
2023-04-21T12:52:06.303Z,5.43
2023-04-21T12:54:34.420Z,5.53
2023-04-21T12:57:02.866Z,5.40
2023-04-21T12:59:31.070Z,7.87
2023-04-21T13:02:01.188Z,6.97
2023-04-21T13:04:29.346Z,5.20
2023-04-21T13:06:57.383Z,6.13
2023-04-21T13:09:25.690Z,5.50
2023-04-21T13:11:53.790Z,5.50
2023-04-21T13:14:21.642Z,5.35
2023-04-21T13:16:49.378Z,4.18
2023-04-21T13:19:18.960Z,5.00
2023-04-21T13:21:47.998Z,4.95
2023-04-21T13:24:15.893Z,6.40
2023-04-21T13:26:44.469Z,4.35
2023-04-21T13:29:12.510Z,6.75
2023-04-21T13:31:40.773Z,5.10
2023-04-21T13:34:09.102Z,6.13
2023-04-21T13:36:38.595Z,4.40
2023-04-21T13:39:10.425Z,6.47
2023-04-21T13:41:38.641Z,6.15
2023-04-21T13:44:07.064Z,6.15
2023-04-21T13:46:34.840Z,9.02
2023-04-21T13:49:02.932Z,5.73
2023-04-21T13:51:32.427Z,5.38
2023-04-21T13:54:01.712Z,6.05
2023-04-21T13:56:30.055Z,6.15
2023-04-21T13:58:59.549Z,7.00
2023-04-21T14:01:27.494Z,10.47
2023-04-21T14:03:56.860Z,5.45
2023-04-21T14:06:25.025Z,3.40
2023-04-21T14:08:52.917Z,7.05
2023-04-21T14:11:22.382Z,5.57
2023-04-21T14:14:07.682Z,5.87
2023-04-21T14:16:37.479Z,5.05
2023-04-21T14:19:05.211Z,5.93
2023-04-21T14:21:33.122Z,5.53
2023-04-21T14:24:01.105Z,4.85
2023-04-21T14:26:30.975Z,5.30
2023-04-21T14:28:59.613Z,5.03
2023-04-21T14:31:27.239Z,7.43
2023-04-21T14:33:55.610Z,9.88
2023-04-21T14:36:23.385Z,9.52
2023-04-21T14:38:51.495Z,5.70
2023-04-21T14:41:19.418Z,4.18
2023-04-21T14:43:49.849Z,8.57
2023-04-21T14:46:17.687Z,5.32
2023-04-21T14:48:46.024Z,4.85
2023-04-21T14:51:13.805Z,4.17
2023-04-21T14:53:41.818Z,4.25
2023-04-21T14:56:09.802Z,4.05
2023-04-21T14:58:37.690Z,3.30
2023-04-21T15:01:07.445Z,3.70
2023-04-21T15:03:35.579Z,3.30
2023-04-21T15:06:03.325Z,3.90
2023-04-21T15:08:31.355Z,3.30
2023-04-21T15:10:59.664Z,4.03
2023-04-21T15:13:27.674Z,4.70
2023-04-21T15:15:55.323Z,3.33
2023-04-21T15:18:25.073Z,5.13
2023-04-21T15:20:52.788Z,3.70
2023-04-21T15:23:21.362Z,4.50
2023-04-21T15:25:49.117Z,6.55
2023-04-21T15:28:16.725Z,4.17
2023-04-21T15:30:45.315Z,3.92
2023-04-21T15:33:13.322Z,4.35
2023-04-21T15:35:42.418Z,3.67
2023-04-21T15:38:10.397Z,4.85
2023-04-21T15:40:49.564Z,5.20
2023-04-21T15:43:26.191Z,9.02
2023-04-21T15:45:54.287Z,18.73
2023-04-21T15:48:22.219Z,14.13
2023-04-21T15:50:51.741Z,16.80
2023-04-21T15:53:20.362Z,13.37
2023-04-21T15:55:50.155Z,7.55
2023-04-21T15:58:18.012Z,6.20
2023-04-21T16:00:46.247Z,6.35
2023-04-21T16:03:14.384Z,5.10
2023-04-21T16:05:42.652Z,5.80
2023-04-21T16:08:12.460Z,7.30
2023-04-21T16:10:40.683Z,9.52
2023-04-21T16:13:08.865Z,11.25
2023-04-21T16:15:37.082Z,7.95
2023-04-21T16:18:06.618Z,5.90
2023-04-21T16:20:34.624Z,6.03
2023-04-21T16:23:04.533Z,5.50
2023-04-21T16:25:33.967Z,7.13
2023-04-21T16:28:01.890Z,6.07
2023-04-21T16:30:29.672Z,4.10
2023-04-21T16:32:57.323Z,3.92
2023-04-21T16:35:26.200Z,6.55
2023-04-21T16:37:53.965Z,5.30
2023-04-21T16:40:22.436Z,6.68
2023-04-21T16:42:51.496Z,8.10
2023-04-21T16:45:19.789Z,9.30
2023-04-21T16:47:47.622Z,10.88
2023-04-21T16:50:15.738Z,10.73
2023-04-21T16:52:43.457Z,8.95
2023-04-21T16:55:11.350Z,11.13
2023-04-21T16:57:39.086Z,8.68
2023-04-21T17:00:11.823Z,8.00
2023-04-21T17:02:40.026Z,7.75
2023-04-21T17:05:08.448Z,6.05
2023-04-21T17:07:36.208Z,5.50
2023-04-21T17:10:04.098Z,9.80
2023-04-21T17:12:32.261Z,5.75
2023-04-21T17:15:00.184Z,7.22
2023-04-21T17:17:39.388Z,11.50
2023-04-21T17:20:10.144Z,9.03
2023-04-21T17:22:38.187Z,8.70
2023-04-21T17:25:06.704Z,6.35
2023-04-21T17:27:36.308Z,3.38
2023-04-21T17:30:04.345Z,5.07
2023-04-21T17:32:34.354Z,10.70
2023-04-21T17:35:02.620Z,7.53
2023-04-21T17:37:30.984Z,11.80
2023-04-21T17:40:01.804Z,13.10
2023-04-21T17:42:30.369Z,10.38
2023-04-21T17:44:58.150Z,7.43
2023-04-21T17:47:25.855Z,6.60
2023-04-21T17:49:55.268Z,4.55
2023-04-21T17:52:23.568Z,5.80
2023-04-21T17:54:51.554Z,4.30
2023-04-21T17:57:19.412Z,5.80
2023-04-21T17:59:47.669Z,5.53
2023-04-21T18:02:15.436Z,4.97
2023-04-21T18:04:44.556Z,5.25
2023-04-21T18:07:14.533Z,3.20
2023-04-21T18:09:42.594Z,6.70
2023-04-21T18:12:10.990Z,7.45
2023-04-21T18:14:39.055Z,7.22
2023-04-21T18:17:07.675Z,6.82
2023-04-21T18:19:35.583Z,4.45
2023-04-21T18:22:03.627Z,5.90
2023-04-21T18:24:33.683Z,4.82
2023-04-21T18:27:02.169Z,4.45
2023-04-21T18:29:29.949Z,6.50
2023-04-21T18:31:57.864Z,4.22
2023-04-21T18:34:26.338Z,5.20
2023-04-21T18:36:54.402Z,5.15
2023-04-21T18:39:22.050Z,5.82
2023-04-21T18:41:52.145Z,4.18
2023-04-21T18:44:20.363Z,5.97
2023-04-21T18:46:48.248Z,5.63
2023-04-21T18:49:16.607Z,5.32
2023-04-21T18:51:45.215Z,5.88
2023-04-21T18:54:13.725Z,5.85
2023-04-21T18:56:42.113Z,7.18
2023-04-21T18:59:11.541Z,6.27
2023-04-21T19:01:40.636Z,5.90
2023-04-21T19:04:10.823Z,7.05
2023-04-21T19:06:38.949Z,5.80
2023-04-21T19:09:07.098Z,7.60
2023-04-21T19:11:35.091Z,5.17
2023-04-21T19:14:03.346Z,5.60
2023-04-21T19:16:33.823Z,7.65
2023-04-21T19:19:02.743Z,5.03
2023-04-21T19:21:32.197Z,4.75
2023-04-21T19:24:00.280Z,7.33
2023-04-21T19:26:28.556Z,5.07
2023-04-21T19:28:56.634Z,6.28
2023-04-21T19:31:25.277Z,5.32
2023-04-21T19:33:55.241Z,6.28
2023-04-21T19:36:23.358Z,5.97
2023-04-21T19:38:52.355Z,7.80
2023-04-21T19:41:20.229Z,8.05
2023-04-21T19:43:48.427Z,9.73
2023-04-21T19:46:16.642Z,6.03
2023-04-21T19:48:45.230Z,4.70
2023-04-21T19:51:14.447Z,6.75
2023-04-21T19:53:42.373Z,5.63
2023-04-21T19:56:10.244Z,5.72
2023-04-21T19:58:40.292Z,7.85
2023-04-21T20:01:08.857Z,6.53
2023-04-21T20:03:37.232Z,5.75
2023-04-21T20:06:06.091Z,5.93
2023-04-21T20:08:35.786Z,5.07
2023-04-21T20:11:04.407Z,5.55
2023-04-21T20:13:32.311Z,7.20
2023-04-21T20:16:00.667Z,5.45
2023-04-21T20:18:29.298Z,8.25
2023-04-21T20:20:57.342Z,7.18
2023-04-21T20:23:26.177Z,6.22
2023-04-21T20:25:56.382Z,6.07
2023-04-21T20:28:24.702Z,5.82
2023-04-21T20:30:54.231Z,5.38
2023-04-21T20:33:22.602Z,4.70
2023-04-21T20:35:52.401Z,8.00
2023-04-21T20:38:23.933Z,7.97
2023-04-21T20:40:52.366Z,7.90
2023-04-21T20:43:22.328Z,7.32
2023-04-21T20:45:50.845Z,6.80
2023-04-21T20:48:18.967Z,7.30
2023-04-21T20:50:49.835Z,8.53
2023-04-21T20:53:19.511Z,8.35
2023-04-21T20:55:49.641Z,9.85
2023-04-21T20:58:18.106Z,12.32
2023-04-21T21:00:47.180Z,10.70
2023-04-21T21:03:15.191Z,12.97
2023-04-21T21:05:43.666Z,12.23
2023-04-21T21:08:11.586Z,14.57
2023-04-21T21:10:40.461Z,16.27
2023-04-21T21:13:08.537Z,18.27
2023-04-21T21:15:36.933Z,17.40
2023-04-21T21:18:06.478Z,13.85
2023-04-21T21:20:34.404Z,13.27
2023-04-21T21:23:02.077Z,12.38
2023-04-21T21:25:30.209Z,11.02
2023-04-21T21:27:58.174Z,11.10
2023-04-21T21:30:26.062Z,10.68
2023-04-21T21:32:55.367Z,12.90
2023-04-21T21:35:24.546Z,15.18
2023-04-21T21:37:53.841Z,18.92
2023-04-21T21:40:21.985Z,17.07
2023-04-21T21:42:49.854Z,16.92
2023-04-21T21:45:18.033Z,14.20
2023-04-21T21:47:46.220Z,13.93
2023-04-21T21:50:14.101Z,14.30
2023-04-21T21:52:43.085Z,12.47
2023-04-21T21:55:11.172Z,12.45
2023-04-21T21:57:38.851Z,15.18
2023-04-21T22:00:12.283Z,12.40
2023-04-21T22:02:40.328Z,12.60
2023-04-21T22:05:10.020Z,10.67
2023-04-21T22:07:40.934Z,13.27
2023-04-21T22:10:11.802Z,13.82
2023-04-21T22:12:40.207Z,10.40
2023-04-21T22:15:09.462Z,9.98
2023-04-21T22:17:38.023Z,10.03
2023-04-21T22:20:08.741Z,10.90
2023-04-21T22:22:37.017Z,10.65
2023-04-21T22:25:05.217Z,13.75
2023-04-21T22:27:34.416Z,16.92
2023-04-21T22:30:03.451Z,13.07
2023-04-21T22:32:32.691Z,16.30
2023-04-21T22:35:02.233Z,9.48
2023-04-21T22:37:30.185Z,10.65
2023-04-21T22:39:58.031Z,11.35
2023-04-21T22:42:26.127Z,10.20
2023-04-21T22:44:56.028Z,8.95
2023-04-21T22:47:24.235Z,8.63
2023-04-21T22:49:53.432Z,7.82
2023-04-21T22:52:21.381Z,9.48
2023-04-21T22:54:49.646Z,7.93
2023-04-21T22:57:17.585Z,8.52
2023-04-21T22:59:45.553Z,9.38
2023-04-21T23:02:15.273Z,8.18
2023-04-21T23:04:43.350Z,9.38
2023-04-21T23:07:12.073Z,11.20
2023-04-21T23:09:40.210Z,13.38
2023-04-21T23:12:08.961Z,10.82
2023-04-21T23:14:36.971Z,10.00
2023-04-21T23:17:04.921Z,12.20
2023-04-21T23:19:34.401Z,8.70
2023-04-21T23:22:02.720Z,9.55
2023-04-21T23:24:30.851Z,8.65
2023-04-21T23:26:58.885Z,11.20
2023-04-21T23:29:27.122Z,12.52
2023-04-21T23:31:55.118Z,11.27
2023-04-21T23:34:22.849Z,14.00
2023-04-21T23:36:52.816Z,12.05
2023-04-21T23:39:21.860Z,12.60
2023-04-21T23:41:49.913Z,11.70
2023-04-21T23:44:17.846Z,12.70
2023-04-21T23:46:45.619Z,10.82
2023-04-21T23:49:13.578Z,9.68
2023-04-21T23:51:41.808Z,10.27
2023-04-21T23:54:11.232Z,9.57
2023-04-21T23:56:38.973Z,8.53
2023-04-21T23:59:07.393Z,8.55
